将来の夢は…

LUXURY FLIGHT

03-6423-7371

羽田本店:東京都大田区羽田5-11-1
営業時間:10:00~20:00
定休日:毎週 月曜日
セントレア店:愛知県常滑市セントレア1-1
営業時間:10:00~20:00 年中無休

lv

将来の夢は…

STAFF BLOG

2019/09/19 将来の夢は…

おはようござまーすっ

 

本日の中部は、

RJGG 190100Z 35013KT 9999 FEW020 25/14 Q1013 NOSIG

 

秋雨前線の影響で、若干曇ってますね〜〜〜 

 

さあ本日は、先日、福岡からお越しいただいたのは、Uさま御一家!

 

今回、操縦体験してくれたのは、航空管制官を夢見るキッズ!

5歳の時に、某管制官テレビドラマを観て、ドハマり!!

 

以来、とにかく管制官になるのが、今回の人生の夢なのだそう!

 

そして、飛行機や専門用語の知識の量が、温泉の様に湧きあがり、半端ありません!!

その理由をお父様とお母様に伺うと、愛読書は航空雑誌なのだとか(笑)

 

ちなみに、来世の夢はパイロット!

優先順位の付けかた、しっかりしていて勉強になりますっ!!

 

大人用のパイロットグローブを装着して、今日の気分はパイロット!

 

さあ、クリアド・フォー・テイクオーーーーーフッ!!

 

体験は、管制官とパイロットとの関わり方や管制用語のお話中心に!

管制官役のアドバイザーと交信して、オートパイロットに指示を出していきます!

 

管制官役:「ターン レフト ヘディング180」

「らじゃーーーーー!!!!」

 

ん?でも、ヘディングどれ??

へぇ〜〜〜これがヘディングなんだ!

 

あっ、これがスピード?!

 

じゃあ、これが高度なんだね!

 

ILSアプローチって、こんな風になってるの〜〜〜〜!!

 

 

 

%e9%a3%9b%e8%a1%8c%e4%b8%ad

 

 

今まで頭の中で想像してきた、

操縦席に座り、操縦桿の重さやスラストレバーのかたさ、飛行機の大きさを実際に肌で感じるを感じたことで、

その驚きと感動で、瞳が輝き、好奇心がさらに燃え上がります!!

 

フライト終了後も、マシンガン航空トーーーーーーク(笑)

 

%e8%ac%9b%e7%be%a9

その止まらぬ探求心に応えようと、弊社スタッフの説明も、身振り手振りで、ついつい熱が入ります!

あまりの熱さに手がブレてます。笑

 

灼熱のコクピットで、心身共にアチチッとなったところで、お帰りの時間となりました。

 

パイロットだけでなく、管制官・客室乗務員・整備士・運航管理者・地上職員・空港職員など、

数多くのプロフェッショナル達が、日々のエアラインの安全運航を支えています。

 

そんな航空界のプロフェッショナルを目指している方、また興味関心をお持ちの方の疑問質問にも、

限られた時間とはなりますが、弊社スタッフが丁寧にお答えさせて頂きます!

 

本日は遠方よりお越し頂き、また熱意と刺激を頂きまして、本当にありがとうございました!

 

ご子息様のご成長と、ご一家の皆さまのまたのご来店を、スタッフ一同、心より楽しみにお待ちしております。

 

「感謝」

TOP